sensor_id;sensor_type;location;lat;lon;timestamp;pressure;altitude;pressure_sealevel;temperature;humidity
34081;BME280;20358;50.272;19.026;2023-03-18T00:02:03;98447.38;;;2.43;42.51
34081;BME280;20358;50.272;19.026;2023-03-18T00:05:09;98449.31;;;2.38;43.16
34081;BME280;20358;50.272;19.026;2023-03-18T00:08:17;98443.50;;;2.31;42.34
34081;BME280;20358;50.272;19.026;2023-03-18T00:11:23;98442.78;;;2.28;42.19
34081;BME280;20358;50.272;19.026;2023-03-18T00:14:29;98444.72;;;2.23;43.27
34081;BME280;20358;50.272;19.026;2023-03-18T00:17:38;98441.44;;;2.18;42.57
34081;BME280;20358;50.272;19.026;2023-03-18T00:20:45;98440.78;;;2.13;43.54
34081;BME280;20358;50.272;19.026;2023-03-18T00:23:50;98446.91;;;2.12;42.27
34081;BME280;20358;50.272;19.026;2023-03-18T00:26:58;98446.03;;;2.11;42.61
34081;BME280;20358;50.272;19.026;2023-03-18T00:30:05;98451.44;;;2.07;43.31
34081;BME280;20358;50.272;19.026;2023-03-18T00:33:17;98431.59;;;2.03;42.85
34081;BME280;20358;50.272;19.026;2023-03-18T00:36:23;98435.34;;;1.96;42.39
34081;BME280;20358;50.272;19.026;2023-03-18T00:39:30;98430.38;;;1.90;42.55
34081;BME280;20358;50.272;19.026;2023-03-18T00:42:38;98417.69;;;1.80;42.71
34081;BME280;20358;50.272;19.026;2023-03-18T00:45:49;98413.63;;;1.73;43.06
34081;BME280;20358;50.272;19.026;2023-03-18T00:48:59;98407.69;;;1.70;44.13
34081;BME280;20358;50.272;19.026;2023-03-18T00:52:07;98407.88;;;1.65;43.26
34081;BME280;20358;50.272;19.026;2023-03-18T00:55:13;98406.16;;;1.64;43.64
34081;BME280;20358;50.272;19.026;2023-03-18T00:58:19;98401.81;;;1.65;43.68
34081;BME280;20358;50.272;19.026;2023-03-18T01:01:26;98368.78;;;1.44;43.73
34081;BME280;20358;50.272;19.026;2023-03-18T01:04:37;98401.88;;;1.63;44.09
34081;BME280;20358;50.272;19.026;2023-03-18T01:07:43;98398.34;;;1.64;44.69
34081;BME280;20358;50.272;19.026;2023-03-18T01:10:50;98394.06;;;1.63;44.61
34081;BME280;20358;50.272;19.026;2023-03-18T01:13:56;98391.47;;;1.63;44.61
34081;BME280;20358;50.272;19.026;2023-03-18T01:17:04;98386.25;;;1.63;44.88
34081;BME280;20358;50.272;19.026;2023-03-18T01:20:17;98379.34;;;1.62;43.72
34081;BME280;20358;50.272;19.026;2023-03-18T01:23:28;98383.00;;;1.58;44.27
34081;BME280;20358;50.272;19.026;2023-03-18T01:26:34;98378.69;;;1.57;43.93
34081;BME280;20358;50.272;19.026;2023-03-18T01:29:41;98375.22;;;1.57;43.97
34081;BME280;20358;50.272;19.026;2023-03-18T01:32:53;98376.19;;;1.54;44.75
34081;BME280;20358;50.272;19.026;2023-03-18T01:36:03;98371.91;;;1.53;43.88
34081;BME280;20358;50.272;19.026;2023-03-18T01:39:09;98374.44;;;1.55;44.93
34081;BME280;20358;50.272;19.026;2023-03-18T01:42:16;98367.59;;;1.52;44.60
34081;BME280;20358;50.272;19.026;2023-03-18T01:45:26;98370.31;;;1.49;44.67
34081;BME280;20358;50.272;19.026;2023-03-18T01:48:38;98366.13;;;1.45;44.03
34081;BME280;20358;50.272;19.026;2023-03-18T01:51:50;98374.09;;;1.41;44.86
34081;BME280;20358;50.272;19.026;2023-03-18T01:55:04;98372.53;;;1.37;45.28
34081;BME280;20358;50.272;19.026;2023-03-18T01:58:16;98372.63;;;1.34;45.39
34081;BME280;20358;50.272;19.026;2023-03-18T02:01:32;98368.50;;;1.28;45.40
34081;BME280;20358;50.272;19.026;2023-03-18T02:04:43;98363.53;;;1.22;44.66
34081;BME280;20358;50.272;19.026;2023-03-18T02:07:55;98370.53;;;1.20;44.59
34081;BME280;20358;50.272;19.026;2023-03-18T02:11:02;98370.78;;;1.14;44.97
34081;BME280;20358;50.272;19.026;2023-03-18T02:14:12;98368.22;;;1.12;45.51
34081;BME280;20358;50.272;19.026;2023-03-18T02:17:23;98309.81;;;0.75;45.54
34081;BME280;20358;50.272;19.026;2023-03-18T02:20:54;98360.69;;;1.05;45.31
34081;BME280;20358;50.272;19.026;2023-03-18T02:24:26;98358.25;;;1.00;45.12
34081;BME280;20358;50.272;19.026;2023-03-18T02:27:53;98355.84;;;0.96;46.04
34081;BME280;20358;50.272;19.026;2023-03-18T02:31:12;98354.22;;;0.92;45.87
34081;BME280;20358;50.272;19.026;2023-03-18T02:34:23;98354.31;;;0.89;45.46
34081;BME280;20358;50.272;19.026;2023-03-18T02:37:31;98351.03;;;0.84;45.67
34081;BME280;20358;50.272;19.026;2023-03-18T02:40:40;98353.75;;;0.81;45.50
34081;BME280;20358;50.272;19.026;2023-03-18T02:43:55;98364.31;;;0.76;46.38
34081;BME280;20358;50.272;19.026;2023-03-18T02:47:10;98358.41;;;0.73;46.05
34081;BME280;20358;50.272;19.026;2023-03-18T02:50:20;98344.72;;;0.68;46.32
34081;BME280;20358;50.272;19.026;2023-03-18T02:53:26;98359.56;;;0.64;46.12
34081;BME280;20358;50.272;19.026;2023-03-18T02:56:32;98357.84;;;0.63;45.86
34081;BME280;20358;50.272;19.026;2023-03-18T02:59:41;98358.81;;;0.61;46.15
34081;BME280;20358;50.272;19.026;2023-03-18T03:02:47;98365.81;;;0.58;46.90
34081;BME280;20358;50.272;19.026;2023-03-18T03:05:54;98328.41;;;0.38;46.90
34081;BME280;20358;50.272;19.026;2023-03-18T03:09:01;98368.47;;;0.57;46.29
34081;BME280;20358;50.272;19.026;2023-03-18T03:12:09;98369.53;;;0.51;47.10
34081;BME280;20358;50.272;19.026;2023-03-18T03:15:25;98365.31;;;0.47;46.96
34081;BME280;20358;50.272;19.026;2023-03-18T03:18:32;98362.03;;;0.42;47.32
34081;BME280;20358;50.272;19.026;2023-03-18T03:21:40;98370.72;;;0.41;47.10
34081;BME280;20358;50.272;19.026;2023-03-18T03:24:45;98371.72;;;0.37;47.16
34081;BME280;20358;50.272;19.026;2023-03-18T03:27:51;98381.25;;;0.37;47.37
34081;BME280;20358;50.272;19.026;2023-03-18T03:31:01;98367.53;;;0.33;47.41
34081;BME280;20358;50.272;19.026;2023-03-18T03:34:10;98366.94;;;0.25;47.68
34081;BME280;20358;50.272;19.026;2023-03-18T03:37:16;98360.13;;;0.21;47.64
34081;BME280;20358;50.272;19.026;2023-03-18T03:40:23;98374.03;;;0.20;47.90
34081;BME280;20358;50.272;19.026;2023-03-18T03:43:29;98368.94;;;0.17;48.07
34081;BME280;20358;50.272;19.026;2023-03-18T03:46:38;98373.34;;;0.15;47.71
34081;BME280;20358;50.272;19.026;2023-03-18T03:49:44;98376.81;;;0.14;48.29
34081;BME280;20358;50.272;19.026;2023-03-18T03:52:51;98354.72;;;0.03;48.04
34081;BME280;20358;50.272;19.026;2023-03-18T03:55:57;98376.13;;;0.09;47.70
34081;BME280;20358;50.272;19.026;2023-03-18T03:59:04;98374.53;;;0.05;48.24
34081;BME280;20358;50.272;19.026;2023-03-18T04:02:35;98376.31;;;0.03;48.36
34081;BME280;20358;50.272;19.026;2023-03-18T04:05:42;98383.31;;;0.01;48.52
34081;BME280;20358;50.272;19.026;2023-03-18T04:08:47;98374.72;;;-0.01;48.01
34081;BME280;20358;50.272;19.026;2023-03-18T04:11:54;98384.34;;;-0.05;48.64
34081;BME280;20358;50.272;19.026;2023-03-18T04:15:00;98379.22;;;-0.06;48.62
34081;BME280;20358;50.272;19.026;2023-03-18T04:18:10;98383.59;;;-0.08;48.64
34081;BME280;20358;50.272;19.026;2023-03-18T04:21:16;98389.78;;;-0.12;48.84
34081;BME280;20358;50.272;19.026;2023-03-18T04:24:27;98385.53;;;-0.15;48.85
34081;BME280;20358;50.272;19.026;2023-03-18T04:27:33;98382.19;;;-0.18;48.83
34081;BME280;20358;50.272;19.026;2023-03-18T04:30:42;98377.94;;;-0.21;48.70
34081;BME280;20358;50.272;19.026;2023-03-18T04:33:54;98382.31;;;-0.23;48.86
34081;BME280;20358;50.272;19.026;2023-03-18T04:37:02;98378.97;;;-0.26;48.79
34081;BME280;20358;50.272;19.026;2023-03-18T04:40:15;98388.53;;;-0.28;49.16
34081;BME280;20358;50.272;19.026;2023-03-18T04:43:21;98380.00;;;-0.32;48.85
34081;BME280;20358;50.272;19.026;2023-03-18T04:46:27;98383.50;;;-0.33;48.85
34081;BME280;20358;50.272;19.026;2023-03-18T04:49:37;98382.75;;;-0.36;49.21
34081;BME280;20358;50.272;19.026;2023-03-18T04:52:43;98378.59;;;-0.42;48.80
34081;BME280;20358;50.272;19.026;2023-03-18T04:55:55;98388.19;;;-0.45;48.90
34081;BME280;20358;50.272;19.026;2023-03-18T04:59:08;98384.78;;;-0.47;49.09
34081;BME280;20358;50.272;19.026;2023-03-18T05:02:15;98386.47;;;-0.46;49.62
34081;BME280;20358;50.272;19.026;2023-03-18T05:05:24;98381.38;;;-0.49;49.65
34081;BME280;20358;50.272;19.026;2023-03-18T05:08:30;98389.00;;;-0.43;50.04
34081;BME280;20358;50.272;19.026;2023-03-18T05:11:36;98388.91;;;-0.40;49.62
34081;BME280;20358;50.272;19.026;2023-03-18T05:14:53;98391.34;;;-0.34;49.47
34081;BME280;20358;50.272;19.026;2023-03-18T05:17:59;98397.22;;;-0.29;49.43
34081;BME280;20358;50.272;19.026;2023-03-18T05:21:10;98393.69;;;-0.27;49.68
34081;BME280;20358;50.272;19.026;2023-03-18T05:24:16;98389.28;;;-0.23;49.89
34081;BME280;20358;50.272;19.026;2023-03-18T05:27:23;98394.25;;;-0.17;49.80
34081;BME280;20358;50.272;19.026;2023-03-18T05:30:34;98396.69;;;-0.13;49.57
34081;BME280;20358;50.272;19.026;2023-03-18T05:33:46;98395.66;;;-0.07;49.81
34081;BME280;20358;50.272;19.026;2023-03-18T05:36:55;98398.97;;;-0.02;49.50
34081;BME280;20358;50.272;19.026;2023-03-18T05:40:02;98400.59;;;0.02;49.47
34081;BME280;20358;50.272;19.026;2023-03-18T05:43:11;98397.03;;;0.05;49.31
34081;BME280;20358;50.272;19.026;2023-03-18T05:46:24;98405.56;;;0.08;48.99
34081;BME280;20358;50.272;19.026;2023-03-18T05:49:37;98408.13;;;0.10;49.36
34081;BME280;20358;50.272;19.026;2023-03-18T05:52:56;98410.56;;;0.14;48.90
34081;BME280;20358;50.272;19.026;2023-03-18T05:56:07;98417.47;;;0.15;48.94
34081;BME280;20358;50.272;19.026;2023-03-18T05:59:14;98417.47;;;0.15;48.72
34081;BME280;20358;50.272;19.026;2023-03-18T06:02:23;98422.59;;;0.18;48.57
34081;BME280;20358;50.272;19.026;2023-03-18T06:05:30;98415.38;;;0.26;48.48
34081;BME280;20358;50.272;19.026;2023-03-18T06:08:39;98427.28;;;0.33;48.55
34081;BME280;20358;50.272;19.026;2023-03-18T06:11:46;98422.47;;;0.47;49.22
34081;BME280;20358;50.272;19.026;2023-03-18T06:14:52;98418.56;;;0.61;48.61
34081;BME280;20358;50.272;19.026;2023-03-18T06:18:00;98420.78;;;0.73;47.96
34081;BME280;20358;50.272;19.026;2023-03-18T06:21:08;98418.63;;;0.84;48.06
34081;BME280;20358;50.272;19.026;2023-03-18T06:24:18;98423.44;;;0.96;47.68
34081;BME280;20358;50.272;19.026;2023-03-18T06:27:23;98419.50;;;1.09;47.23
34081;BME280;20358;50.272;19.026;2023-03-18T06:30:33;98421.72;;;1.19;47.25
34081;BME280;20358;50.272;19.026;2023-03-18T06:33:39;98418.72;;;1.30;46.89
34081;BME280;20358;50.272;19.026;2023-03-18T06:36:48;98425.31;;;1.40;46.10
34081;BME280;20358;50.272;19.026;2023-03-18T06:39:57;98419.84;;;1.46;46.85
34081;BME280;20358;50.272;19.026;2023-03-18T06:43:04;98426.56;;;1.53;45.55
34081;BME280;20358;50.272;19.026;2023-03-18T06:46:13;98428.13;;;1.57;46.85
34081;BME280;20358;50.272;19.026;2023-03-18T06:49:20;98432.97;;;1.66;46.79
34081;BME280;20358;50.272;19.026;2023-03-18T06:52:33;98437.75;;;1.78;46.11
34081;BME280;20358;50.272;19.026;2023-03-18T06:55:49;98425.81;;;1.73;45.11
34081;BME280;20358;50.272;19.026;2023-03-18T06:58:58;98436.41;;;1.90;45.41
34081;BME280;20358;50.272;19.026;2023-03-18T07:02:06;98442.94;;;2.02;44.73
34081;BME280;20358;50.272;19.026;2023-03-18T07:05:13;98450.53;;;2.08;45.35
34081;BME280;20358;50.272;19.026;2023-03-18T07:08:20;98450.41;;;2.11;45.02
34081;BME280;20358;50.272;19.026;2023-03-18T07:11:28;98453.56;;;2.19;44.73
34081;BME280;20358;50.272;19.026;2023-03-18T07:14:41;98470.41;;;2.32;43.97
34081;BME280;20358;50.272;19.026;2023-03-18T07:17:47;98467.38;;;2.42;44.45
34081;BME280;20358;50.272;19.026;2023-03-18T07:20:55;98463.44;;;2.54;43.49
34081;BME280;20358;50.272;19.026;2023-03-18T07:24:00;98471.53;;;2.68;43.27
34081;BME280;20358;50.272;19.026;2023-03-18T07:27:10;98467.59;;;2.80;42.98
34081;BME280;20358;50.272;19.026;2023-03-18T07:30:17;98464.66;;;2.87;42.93
34081;BME280;20358;50.272;19.026;2023-03-18T07:33:24;98469.22;;;3.02;43.39
34081;BME280;20358;50.272;19.026;2023-03-18T07:36:30;98465.91;;;3.19;42.50
34081;BME280;20358;50.272;19.026;2023-03-18T07:39:36;98474.97;;;3.31;42.97
34081;BME280;20358;50.272;19.026;2023-03-18T07:42:46;98466.59;;;3.43;41.72
34081;BME280;20358;50.272;19.026;2023-03-18T07:45:53;98460.84;;;3.55;42.00
34081;BME280;20358;50.272;19.026;2023-03-18T07:48:59;98452.72;;;3.61;41.42
34081;BME280;20358;50.272;19.026;2023-03-18T07:52:06;98454.50;;;3.79;40.93
34081;BME280;20358;50.272;19.026;2023-03-18T07:55:12;98459.00;;;3.96;41.48
34081;BME280;20358;50.272;19.026;2023-03-18T07:58:21;98461.00;;;4.09;40.78
34081;BME280;20358;50.272;19.026;2023-03-18T08:01:27;98453.41;;;4.22;40.28
34081;BME280;20358;50.272;19.026;2023-03-18T08:04:34;98455.44;;;4.34;39.97
34081;BME280;20358;50.272;19.026;2023-03-18T08:07:40;98449.56;;;4.48;39.98
34081;BME280;20358;50.272;19.026;2023-03-18T08:10:47;98455.88;;;4.61;39.12
34081;BME280;20358;50.272;19.026;2023-03-18T08:13:56;98451.97;;;4.69;38.23
34081;BME280;20358;50.272;19.026;2023-03-18T08:17:02;98454.06;;;4.80;38.17
34081;BME280;20358;50.272;19.026;2023-03-18T08:20:09;98446.84;;;4.85;37.68
34081;BME280;20358;50.272;19.026;2023-03-18T08:23:17;98454.81;;;4.99;37.78
34081;BME280;20358;50.272;19.026;2023-03-18T08:26:22;98455.75;;;5.15;36.92
34081;BME280;20358;50.272;19.026;2023-03-18T08:29:32;98447.88;;;5.32;36.65
34081;BME280;20358;50.272;19.026;2023-03-18T08:32:38;98448.81;;;5.48;36.37
34081;BME280;20358;50.272;19.026;2023-03-18T08:35:44;98451.88;;;5.57;36.34
34081;BME280;20358;50.272;19.026;2023-03-18T08:38:52;98456.44;;;5.69;35.68
34081;BME280;20358;50.272;19.026;2023-03-18T08:41:58;98447.94;;;5.81;35.62
34081;BME280;20358;50.272;19.026;2023-03-18T08:45:08;98448.03;;;5.95;35.54
34081;BME280;20358;50.272;19.026;2023-03-18T08:48:16;98450.94;;;6.06;35.86
34081;BME280;20358;50.272;19.026;2023-03-18T08:51:21;98456.50;;;6.15;35.01
34081;BME280;20358;50.272;19.026;2023-03-18T08:54:29;98449.06;;;6.24;34.36
34081;BME280;20358;50.272;19.026;2023-03-18T08:57:34;98455.59;;;6.32;34.71
34081;BME280;20358;50.272;19.026;2023-03-18T09:00:43;98447.97;;;6.43;34.45
34081;BME280;20358;50.272;19.026;2023-03-18T09:03:49;98452.50;;;6.55;34.93
34081;BME280;20358;50.272;19.026;2023-03-18T09:06:58;98444.09;;;6.64;34.51
34081;BME280;20358;50.272;19.026;2023-03-18T09:10:06;98440.06;;;6.74;34.56
34081;BME280;20358;50.272;19.026;2023-03-18T09:13:14;98441.25;;;6.85;33.83
34081;BME280;20358;50.272;19.026;2023-03-18T09:16:23;98435.63;;;6.91;34.68
34081;BME280;20358;50.272;19.026;2023-03-18T09:19:29;98438.81;;;6.96;33.45
34081;BME280;20358;50.272;19.026;2023-03-18T09:22:35;98431.44;;;7.02;34.56
34081;BME280;20358;50.272;19.026;2023-03-18T09:25:41;98430.81;;;7.13;32.98
34081;BME280;20358;50.272;19.026;2023-03-18T09:28:47;98431.38;;;7.18;32.89
34081;BME280;20358;50.272;19.026;2023-03-18T09:31:56;98427.78;;;7.19;32.50
34081;BME280;20358;50.272;19.026;2023-03-18T09:35:02;98430.41;;;7.19;32.39
34081;BME280;20358;50.272;19.026;2023-03-18T09:38:13;98423.03;;;7.25;32.39
34081;BME280;20358;50.272;19.026;2023-03-18T09:41:28;98417.13;;;7.36;32.49
34081;BME280;20358;50.272;19.026;2023-03-18T09:44:53;98424.56;;;7.44;32.35
34081;BME280;20358;50.272;19.026;2023-03-18T09:48:28;98426.81;;;7.50;31.34
34081;BME280;20358;50.272;19.026;2023-03-18T09:52:02;98415.84;;;7.57;31.82
34081;BME280;20358;50.272;19.026;2023-03-18T09:55:24;98418.38;;;7.59;31.05
34081;BME280;20358;50.272;19.026;2023-03-18T09:58:48;98403.44;;;7.59;31.00
34081;BME280;20358;50.272;19.026;2023-03-18T10:02:03;98418.84;;;7.65;31.05
34081;BME280;20358;50.272;19.026;2023-03-18T10:05:28;98421.25;;;7.68;30.11
34081;BME280;20358;50.272;19.026;2023-03-18T10:08:56;98413.59;;;7.65;30.25
34081;BME280;20358;50.272;19.026;2023-03-18T10:12:17;98420.50;;;7.66;29.98
34081;BME280;20358;50.272;19.026;2023-03-18T10:15:31;98393.47;;;7.50;30.35
34081;BME280;20358;50.272;19.026;2023-03-18T10:18:42;98412.81;;;7.63;29.99
34081;BME280;20358;50.272;19.026;2023-03-18T10:22:02;98406.75;;;7.63;30.64
34081;BME280;20358;50.272;19.026;2023-03-18T10:25:25;98407.09;;;7.71;30.99
34081;BME280;20358;50.272;19.026;2023-03-18T10:32:36;98408.69;;;7.87;29.82
34081;BME280;20358;50.272;19.026;2023-03-18T10:35:58;98399.84;;;7.88;30.58
34081;BME280;20358;50.272;19.026;2023-03-18T10:39:16;98391.97;;;8.03;30.37
34081;BME280;20358;50.272;19.026;2023-03-18T10:42:27;98393.34;;;8.08;29.88
34081;BME280;20358;50.272;19.026;2023-03-18T10:45:37;98393.91;;;8.13;29.81
34081;BME280;20358;50.272;19.026;2023-03-18T10:48:47;98406.91;;;8.29;30.11
34081;BME280;20358;50.272;19.026;2023-03-18T10:52:00;98395.41;;;8.44;30.41
34081;BME280;20358;50.272;19.026;2023-03-18T10:55:21;98383.78;;;8.60;29.66
34081;BME280;20358;50.272;19.026;2023-03-18T10:58:34;98382.44;;;8.80;28.85
34081;BME280;20358;50.272;19.026;2023-03-18T11:01:41;98379.81;;;8.93;27.55
34081;BME280;20358;50.272;19.026;2023-03-18T11:04:56;98382.78;;;9.13;27.86
34081;BME280;20358;50.272;19.026;2023-03-18T11:08:07;98384.97;;;9.34;28.13
34081;BME280;20358;50.272;19.026;2023-03-18T11:11:41;98382.09;;;9.49;27.50
34081;BME280;20358;50.272;19.026;2023-03-18T11:14:50;98368.06;;;9.61;25.56
34081;BME280;20358;50.272;19.026;2023-03-18T11:17:58;98375.44;;;9.69;25.47
34081;BME280;20358;50.272;19.026;2023-03-18T11:21:06;98375.84;;;9.75;24.95
34081;BME280;20358;50.272;19.026;2023-03-18T11:24:24;98374.53;;;9.81;25.66
34081;BME280;20358;50.272;19.026;2023-03-18T11:27:41;98368.13;;;9.85;25.21
34081;BME280;20358;50.272;19.026;2023-03-18T11:30:51;98358.09;;;9.90;25.74
34081;BME280;20358;50.272;19.026;2023-03-18T11:34:07;98364.81;;;9.94;24.79
34081;BME280;20358;50.272;19.026;2023-03-18T11:37:14;98363.31;;;10.03;25.66
34081;BME280;20358;50.272;19.026;2023-03-18T11:40:25;98356.75;;;10.08;24.60
34081;BME280;20358;50.272;19.026;2023-03-18T11:43:37;98356.06;;;10.17;25.80
34081;BME280;20358;50.272;19.026;2023-03-18T11:46:49;98350.38;;;10.23;24.84
34081;BME280;20358;50.272;19.026;2023-03-18T11:50:03;98347.41;;;10.28;25.29
34081;BME280;20358;50.272;19.026;2023-03-18T11:53:13;98357.41;;;10.35;24.98
34081;BME280;20358;50.272;19.026;2023-03-18T11:56:32;98349.88;;;10.42;25.66
34081;BME280;20358;50.272;19.026;2023-03-18T12:00:05;98350.03;;;10.52;25.35
34081;BME280;20358;50.272;19.026;2023-03-18T12:03:47;98334.19;;;10.52;24.82
34081;BME280;20358;50.272;19.026;2023-03-18T12:07:21;98337.56;;;10.54;25.08
34081;BME280;20358;50.272;19.026;2023-03-18T12:10:43;98336.25;;;10.59;25.40
34081;BME280;20358;50.272;19.026;2023-03-18T12:14:03;98329.91;;;10.62;25.92
34081;BME280;20358;50.272;19.026;2023-03-18T12:17:29;98334.13;;;10.64;25.65
34081;BME280;20358;50.272;19.026;2023-03-18T12:20:50;98329.69;;;10.65;25.65
34081;BME280;20358;50.272;19.026;2023-03-18T12:24:11;98323.22;;;10.69;26.36
34081;BME280;20358;50.272;19.026;2023-03-18T12:27:39;98326.09;;;10.77;26.45
34081;BME280;20358;50.272;19.026;2023-03-18T12:31:05;98324.72;;;10.84;26.14
34081;BME280;20358;50.272;19.026;2023-03-18T12:34:50;98328.53;;;10.80;25.75
34081;BME280;20358;50.272;19.026;2023-03-18T12:42:10;98321.34;;;10.82;25.75
34081;BME280;20358;50.272;19.026;2023-03-18T12:45:29;98307.53;;;10.78;25.38
34081;BME280;20358;50.272;19.026;2023-03-18T12:48:49;98310.03;;;10.80;25.73
34081;BME280;20358;50.272;19.026;2023-03-18T12:52:07;98307.63;;;10.77;25.88
34081;BME280;20358;50.272;19.026;2023-03-18T12:55:23;98298.53;;;10.81;25.16
34081;BME280;20358;50.272;19.026;2023-03-18T12:58:38;98286.47;;;10.77;24.59
34081;BME280;20358;50.272;19.026;2023-03-18T13:02:03;98289.72;;;10.69;24.43
34081;BME280;20358;50.272;19.026;2023-03-18T13:05:37;98292.75;;;10.76;25.06
34081;BME280;20358;50.272;19.026;2023-03-18T13:09:09;98290.63;;;10.92;25.55
34081;BME280;20358;50.272;19.026;2023-03-18T13:12:27;98287.97;;;11.03;25.26
34081;BME280;20358;50.272;19.026;2023-03-18T13:15:40;98291.56;;;11.13;25.00
34081;BME280;20358;50.272;19.026;2023-03-18T13:18:54;98286.34;;;11.24;25.63
34081;BME280;20358;50.272;19.026;2023-03-18T13:22:17;98293.56;;;11.33;25.92
34081;BME280;20358;50.272;19.026;2023-03-18T13:25:51;98281.06;;;11.46;25.70
34081;BME280;20358;50.272;19.026;2023-03-18T13:29:17;98279.38;;;11.56;25.05
34081;BME280;20358;50.272;19.026;2023-03-18T13:32:57;98277.28;;;11.60;23.92
34081;BME280;20358;50.272;19.026;2023-03-18T13:36:58;98270.44;;;11.68;24.97
34081;BME280;20358;50.272;19.026;2023-03-18T13:40:34;98258.38;;;11.76;24.23
34081;BME280;20358;50.272;19.026;2023-03-18T13:43:58;98274.88;;;11.79;24.42
34081;BME280;20358;50.272;19.026;2023-03-18T13:47:15;98267.53;;;11.83;24.34
34081;BME280;20358;50.272;19.026;2023-03-18T13:50:31;98261.72;;;11.89;24.52
34081;BME280;20358;50.272;19.026;2023-03-18T13:53:42;98254.53;;;11.91;24.47
34081;BME280;20358;50.272;19.026;2023-03-18T13:56:52;98247.78;;;11.87;24.09
34081;BME280;20358;50.272;19.026;2023-03-18T14:00:22;98254.47;;;12.02;23.58
34081;BME280;20358;50.272;19.026;2023-03-18T14:03:54;98259.41;;;12.06;24.04
34081;BME280;20358;50.272;19.026;2023-03-18T14:07:12;98241.69;;;12.07;24.16
34081;BME280;20358;50.272;19.026;2023-03-18T14:10:20;98242.75;;;12.15;24.01
34081;BME280;20358;50.272;19.026;2023-03-18T14:13:32;98239.16;;;12.16;23.46
34081;BME280;20358;50.272;19.026;2023-03-18T14:16:51;98243.59;;;12.16;23.83
34081;BME280;20358;50.272;19.026;2023-03-18T14:20:05;98246.03;;;12.19;24.03
34081;BME280;20358;50.272;19.026;2023-03-18T14:23:31;98244.69;;;12.24;23.86
34081;BME280;20358;50.272;19.026;2023-03-18T14:26:41;98249.34;;;12.32;23.57
34081;BME280;20358;50.272;19.026;2023-03-18T14:29:54;98245.44;;;12.36;23.87
34081;BME280;20358;50.272;19.026;2023-03-18T14:33:01;98231.75;;;12.31;23.92
34081;BME280;20358;50.272;19.026;2023-03-18T14:36:09;98238.22;;;12.38;24.08
34081;BME280;20358;50.272;19.026;2023-03-18T14:39:18;98237.97;;;12.41;23.58
34081;BME280;20358;50.272;19.026;2023-03-18T14:42:41;98229.75;;;12.44;23.89
34081;BME280;20358;50.272;19.026;2023-03-18T14:46:02;98233.16;;;12.35;23.49
34081;BME280;20358;50.272;19.026;2023-03-18T14:49:31;98235.34;;;12.30;23.71
34081;BME280;20358;50.272;19.026;2023-03-18T14:52:43;98225.75;;;12.29;24.05
34081;BME280;20358;50.272;19.026;2023-03-18T14:55:58;98235.09;;;12.33;23.91
34081;BME280;20358;50.272;19.026;2023-03-18T14:59:05;98233.16;;;12.35;24.34
34081;BME280;20358;50.272;19.026;2023-03-18T15:02:22;98233.91;;;12.37;24.47
34081;BME280;20358;50.272;19.026;2023-03-18T15:05:34;98224.78;;;12.30;23.77
34081;BME280;20358;50.272;19.026;2023-03-18T15:08:48;98228.66;;;12.26;24.04
34081;BME280;20358;50.272;19.026;2023-03-18T15:11:56;98227.94;;;12.24;24.06
34081;BME280;20358;50.272;19.026;2023-03-18T15:15:03;98235.44;;;12.19;23.50
34081;BME280;20358;50.272;19.026;2023-03-18T15:18:22;98231.09;;;12.18;24.38
34081;BME280;20358;50.272;19.026;2023-03-18T15:21:32;98232.06;;;12.17;24.50
34081;BME280;20358;50.272;19.026;2023-03-18T15:24:40;98224.59;;;12.11;24.32
34081;BME280;20358;50.272;19.026;2023-03-18T15:27:47;98226.53;;;12.09;24.57
34081;BME280;20358;50.272;19.026;2023-03-18T15:30:55;98227.50;;;12.08;24.35
34081;BME280;20358;50.272;19.026;2023-03-18T15:34:14;98233.50;;;12.10;24.41
34081;BME280;20358;50.272;19.026;2023-03-18T15:37:35;98237.84;;;12.11;24.39
34081;BME280;20358;50.272;19.026;2023-03-18T15:40:50;98197.72;;;11.95;24.52
34081;BME280;20358;50.272;19.026;2023-03-18T15:43:58;98235.66;;;12.16;24.37
34081;BME280;20358;50.272;19.026;2023-03-18T15:47:11;98231.31;;;12.15;24.56
34081;BME280;20358;50.272;19.026;2023-03-18T15:50:28;98233.25;;;12.13;24.31
34081;BME280;20358;50.272;19.026;2023-03-18T15:53:41;98225.69;;;12.08;24.09
34081;BME280;20358;50.272;19.026;2023-03-18T15:56:49;98240.38;;;12.01;24.39
34081;BME280;20358;50.272;19.026;2023-03-18T15:59:56;98245.34;;;11.95;24.01
34081;BME280;20358;50.272;19.026;2023-03-18T16:03:18;98240.44;;;11.90;24.53
34081;BME280;20358;50.272;19.026;2023-03-18T16:06:28;98250.44;;;11.87;24.20
34081;BME280;20358;50.272;19.026;2023-03-18T16:09:36;98258.59;;;11.84;24.55
34081;BME280;20358;50.272;19.026;2023-03-18T16:12:42;98252.47;;;11.83;24.57
34081;BME280;20358;50.272;19.026;2023-03-18T16:15:48;98256.94;;;11.83;24.51
34081;BME280;20358;50.272;19.026;2023-03-18T16:18:55;98256.81;;;11.73;24.38
34081;BME280;20358;50.272;19.026;2023-03-18T16:22:04;98264.44;;;11.66;24.87
34081;BME280;20358;50.272;19.026;2023-03-18T16:25:10;98278.66;;;11.54;24.43
34081;BME280;20358;50.272;19.026;2023-03-18T16:28:19;98272.38;;;11.44;25.12
34081;BME280;20358;50.272;19.026;2023-03-18T16:31:26;98276.72;;;11.34;24.81
34081;BME280;20358;50.272;19.026;2023-03-18T16:34:33;98284.88;;;11.31;25.28
34081;BME280;20358;50.272;19.026;2023-03-18T16:37:42;98278.53;;;11.23;25.14
34081;BME280;20358;50.272;19.026;2023-03-18T16:40:53;98291.72;;;11.12;25.43
34081;BME280;20358;50.272;19.026;2023-03-18T16:44:12;98249.50;;;10.77;25.61
34081;BME280;20358;50.272;19.026;2023-03-18T16:47:22;98285.91;;;10.95;25.90
34081;BME280;20358;50.272;19.026;2023-03-18T16:50:34;98292.16;;;10.83;25.86
34081;BME280;20358;50.272;19.026;2023-03-18T16:53:45;98289.38;;;10.74;26.09
34081;BME280;20358;50.272;19.026;2023-03-18T16:56:56;98294.19;;;10.69;26.13
34081;BME280;20358;50.272;19.026;2023-03-18T17:00:33;98287.66;;;10.62;26.26